Archerfield, Queensland

7:48 AM AEST on February 08, 2016 (GMT +1000)
Darra | | Change Station
CLOSE
Current Station
Personal Weather Station
Location: Darra, QUEENSLAND
Elevation: 89 ft
Nearby Weather Stations

Elev 89 ft 27.56 °S, 152.96 °E | Updated 7 seconds ago

Clear
Clear
75.7 °F
Feels Like 78 °F
N
2.2
Wind Variable Wind from SW
Gusts 4.9 mph

Today
High -- | Low -- °F
--% Chance of Precip.
Yesterday
High -- | Low -- °F
Precip. -- in
Pressure 29.98 in
Visibility -9999.0 miles
Clouds
Heat Index 78 °F
Dew Point 64 °F
Humidity 67%
Rainfall 0.00 in
Snow Depth Not available.
5:25 AM 6:38 PM
Waning Crescent, 1% visible
METAR YBBN 072130Z 19009KT CAVOK 24/16 Q1015 FM0000 13014KT 9999 SCT045
Pressure 29.98 in
Visibility -9999.0 miles
Clouds
Heat Index 78 °F
Dew Point 64 °F
Humidity 67%
Rainfall 0.00 in
Snow Depth Not available.
5:25 AM 6:38 PM
Waning Crescent, 1% visible
METAR YBBN 072130Z 19009KT CAVOK 24/16 Q1015 FM0000 13014KT 9999 SCT045

10-Day Weather Forecast

Almanac

Astronomy

Feb. 08, 2016 Rise Set
Actual Time
Civil Twilight
Nautical Twilight
Astronomical Twilight
Moon
Length of Visible Light
Length of Day
Tomorrow will be .
, % of the Moon is Illuminated

Today's Extremes

Country Highs Country Lows

Community

WunderPhotos

Upload Photos

1,891,304 photos uploaded!

WunderBlog® & News

Nearby

Air Quality

  Air Quality AQ Index Pollutant
Not available.

Snow Depth

Station Depth Elevation

Earthquake Activity

City Distance Mag. Time & Date
Minimum magnitude displayed is 2.5.

Coastal Water Temperatures

Place Temperature

Stations

Nearby Weather Stations

Station Location Temp. Windchill Dew Point Humidity Wind Precip. Elev Updated Type